Time;durP1;ratioP1;P1;durP2;ratioP2;P2;SDS_P1;SDS_P2;PMS_P1;PMS_P2;Temp;Humidity;BMP_temperature;BMP_pressure;BME280_temperature;BME280_humidity;BME280_pressure;Samples;Min_cycle;Max_cycle;Signal;HPM_P1;HPM_P2
2023/03/13 00:01:24;;;;;;;3.75;1.77;;;;;;;;;;4990762;28;20034;-69
2023/03/13 00:03:51;;;;;;;3.75;2.10;;;;;;;;;;4991448;28;20482;-68
2023/03/13 00:06:17;;;;;;;3.38;1.70;;;;;;;;;;4990649;28;20022;-68
2023/03/13 00:08:43;;;;;;;3.00;1.65;;;;;;;;;;4991131;28;20560;-68
2023/03/13 00:11:11;;;;;;;3.33;1.77;;;;;;;;;;4974044;28;20034;-68
2023/03/13 00:13:37;;;;;;;4.88;1.90;;;;;;;;;;4991727;28;20034;-68
2023/03/13 00:16:05;;;;;;;4.40;2.00;;;;;;;;;;4991126;28;20030;-69
2023/03/13 00:18:31;;;;;;;2.92;1.90;;;;;;;;;;4991537;28;20436;-68
2023/03/13 00:21:02;;;;;;;3.35;1.90;;;;;;;;;;4991155;28;20036;-69
2023/03/13 00:23:28;;;;;;;3.25;1.65;;;;;;;;;;4974403;28;20511;-68
2023/03/13 00:25:59;;;;;;;5.13;2.05;;;;;;;;;;4990785;28;20030;-68
2023/03/13 00:28:28;;;;;;;4.15;2.00;;;;;;;;;;4989395;28;20061;-68
2023/03/13 00:31:07;;;;;;;3.35;1.75;;;;;;;;;;4991647;28;20054;-69
2023/03/13 00:33:34;;;;;;;3.25;1.67;;;;;;;;;;4990920;28;20048;-68
2023/03/13 00:36:02;;;;;;;3.90;1.88;;;;;;;;;;4988723;28;20029;-69
2023/03/13 00:38:29;;;;;;;7.10;2.20;;;;;;;;;;4992375;28;20057;-69
2023/03/13 00:41:03;;;;;;;3.10;1.60;;;;;;;;;;4993337;28;20499;-68
2023/03/13 00:43:30;;;;;;;6.32;2.60;;;;;;;;;;4985467;28;20033;-68
2023/03/13 00:45:56;;;;;;;6.20;3.20;;;;;;;;;;4991508;28;20073;-68
2023/03/13 00:48:23;;;;;;;5.88;2.90;;;;;;;;;;4990735;28;20554;-69
2023/03/13 00:50:48;;;;;;;6.75;3.53;;;;;;;;;;4973767;28;20029;-69
2023/03/13 00:53:15;;;;;;;6.25;2.50;;;;;;;;;;4989793;28;20034;-68
2023/03/13 00:55:54;;;;;;;5.40;2.65;;;;;;;;;;5010481;28;20040;-68
2023/03/13 00:58:21;;;;;;;5.43;2.75;;;;;;;;;;5003275;28;20038;-69
2023/03/13 01:00:46;;;;;;;4.47;2.40;;;;;;;;;;4973667;28;20030;-69
2023/03/13 01:03:12;;;;;;;4.13;2.15;;;;;;;;;;4973264;28;20551;-68
2023/03/13 01:05:38;;;;;;;6.65;2.35;;;;;;;;;;4991113;28;20030;-68
2023/03/13 01:08:04;;;;;;;3.50;1.92;;;;;;;;;;4990355;28;20036;-69
2023/03/13 01:10:30;;;;;;;4.97;2.30;;;;;;;;;;4991215;28;20333;-68
2023/03/13 01:12:55;;;;;;;6.57;2.45;;;;;;;;;;5011465;28;20037;-68
2023/03/13 01:15:21;;;;;;;7.95;3.00;;;;;;;;;;4977178;28;20030;-68
2023/03/13 01:17:47;;;;;;;5.50;2.80;;;;;;;;;;4992582;28;20042;-68
2023/03/13 01:20:12;;;;;;;5.30;2.10;;;;;;;;;;4975183;28;20030;-68
2023/03/13 01:22:38;;;;;;;3.78;2.00;;;;;;;;;;4973692;28;20114;-68
2023/03/13 01:25:05;;;;;;;6.15;2.97;;;;;;;;;;4991659;28;20480;-68
2023/03/13 01:27:30;;;;;;;4.05;2.20;;;;;;;;;;4991947;28;20408;-68
2023/03/13 01:29:56;;;;;;;6.28;2.40;;;;;;;;;;4994327;28;20036;-68
2023/03/13 01:32:22;;;;;;;3.10;1.80;;;;;;;;;;4977080;28;20085;-68
2023/03/13 01:34:47;;;;;;;4.63;2.17;;;;;;;;;;4976945;28;20026;-68
2023/03/13 01:37:13;;;;;;;5.68;2.50;;;;;;;;;;4994266;28;20042;-68
2023/03/13 01:39:39;;;;;;;3.53;2.10;;;;;;;;;;4976147;28;20488;-68
2023/03/13 01:42:06;;;;;;;5.88;2.80;;;;;;;;;;4993024;28;20041;-68
2023/03/13 01:44:53;;;;;;;4.68;2.70;;;;;;;;;;4976449;28;20080;-68
2023/03/13 01:47:19;;;;;;;5.10;2.97;;;;;;;;;;4976086;28;20082;-68
2023/03/13 01:50:05;;;;;;;4.43;3.00;;;;;;;;;;4993752;28;20026;-68
2023/03/13 01:52:51;;;;;;;5.03;3.22;;;;;;;;;;4984133;28;20043;-68
2023/03/13 01:55:22;;;;;;;9.02;3.88;;;;;;;;;;4976061;28;20034;-69
2023/03/13 01:57:53;;;;;;;6.28;3.53;;;;;;;;;;4960223;28;20420;-67
2023/03/13 02:00:29;;;;;;;7.90;3.85;;;;;;;;;;4976329;28;20042;-68
2023/03/13 02:03:00;;;;;;;7.88;3.90;;;;;;;;;;4976270;28;20034;-68
2023/03/13 02:05:29;;;;;;;5.68;3.40;;;;;;;;;;4992304;28;20034;-68
2023/03/13 02:07:57;;;;;;;6.35;3.30;;;;;;;;;;4959263;28;20058;-68
2023/03/13 02:10:24;;;;;;;5.00;3.20;;;;;;;;;;5008188;28;20041;-68
2023/03/13 02:12:51;;;;;;;5.03;2.78;;;;;;;;;;4989380;28;20053;-68
2023/03/13 02:15:19;;;;;;;5.68;3.60;;;;;;;;;;4992274;28;20038;-69
2023/03/13 02:17:47;;;;;;;8.85;3.35;;;;;;;;;;4975810;28;20034;-69
2023/03/13 02:20:16;;;;;;;7.97;2.78;;;;;;;;;;4975889;28;20113;-69
2023/03/13 02:23:06;;;;;;;7.47;2.95;;;;;;;;;;4975863;28;20030;-69
2023/03/13 02:25:41;;;;;;;4.50;2.58;;;;;;;;;;4991138;28;20042;-69
2023/03/13 02:28:15;;;;;;;5.47;2.63;;;;;;;;;;4993270;28;20069;-69
2023/03/13 02:30:43;;;;;;;2.83;1.90;;;;;;;;;;4976012;28;20450;-68
2023/03/13 02:33:11;;;;;;;3.85;1.80;;;;;;;;;;4959733;28;20066;-68
2023/03/13 02:35:37;;;;;;;2.63;1.60;;;;;;;;;;4991731;28;20026;-68
2023/03/13 02:38:10;;;;;;;3.03;1.50;;;;;;;;;;4959406;28;20396;-68
2023/03/13 02:40:43;;;;;;;3.40;1.92;;;;;;;;;;4991680;28;20485;-68
2023/03/13 02:43:18;;;;;;;3.80;1.70;;;;;;;;;;4975476;28;20034;-68
2023/03/13 02:45:59;;;;;;;;;;;;;;;;;;4976124;28;20121;-68
2023/03/13 02:48:33;;;;;;;4.57;1.75;;;;;;;;;;4975117;28;20307;-68
2023/03/13 02:51:02;;;;;;;3.03;1.90;;;;;;;;;;4975154;28;20548;-68
2023/03/13 02:53:28;;;;;;;3.83;2.60;;;;;;;;;;4974895;28;20484;-68
2023/03/13 02:55:55;;;;;;;3.15;1.73;;;;;;;;;;4991536;28;20050;-68
2023/03/13 02:58:23;;;;;;;3.88;1.70;;;;;;;;;;4974823;28;20030;-68
2023/03/13 03:00:48;;;;;;;4.85;1.90;;;;;;;;;;4975122;28;20041;-69
2023/03/13 03:03:15;;;;;;;3.70;1.88;;;;;;;;;;4975137;28;20441;-69
2023/03/13 03:05:41;;;;;;;5.50;2.13;;;;;;;;;;4992532;28;20078;-68
2023/03/13 03:08:07;;;;;;;4.22;2.33;;;;;;;;;;4974511;28;20485;-69
2023/03/13 03:10:36;;;;;;;4.95;3.08;;;;;;;;;;4974728;28;20129;-69
2023/03/13 03:13:03;;;;;;;5.38;3.70;;;;;;;;;;4974863;28;20023;-69
2023/03/13 03:15:29;;;;;;;5.10;3.63;;;;;;;;;;4992125;28;20045;-69
2023/03/13 03:17:54;;;;;;;6.25;3.67;;;;;;;;;;4974581;28;20108;-69
2023/03/13 03:20:21;;;;;;;4.70;3.30;;;;;;;;;;4974886;28;20066;-69
2023/03/13 03:22:46;;;;;;;7.78;3.70;;;;;;;;;;4974027;28;20056;-69
2023/03/13 03:25:12;;;;;;;5.25;3.10;;;;;;;;;;4974097;28;20126;-69
2023/03/13 03:27:38;;;;;;;4.82;2.83;;;;;;;;;;4973810;28;20125;-68
2023/03/13 03:30:07;;;;;;;4.32;2.40;;;;;;;;;;4990620;28;20122;-68
2023/03/13 03:32:34;;;;;;;5.60;2.70;;;;;;;;;;4974538;28;20026;-68
2023/03/13 03:35:01;;;;;;;3.88;2.53;;;;;;;;;;5006750;28;20097;-68
2023/03/13 03:37:27;;;;;;;4.60;2.20;;;;;;;;;;4973989;28;20037;-69
2023/03/13 03:39:53;;;;;;;4.50;2.80;;;;;;;;;;4990363;28;20084;-68
2023/03/13 03:42:19;;;;;;;5.25;3.17;;;;;;;;;;4973047;28;20033;-68
2023/03/13 03:44:45;;;;;;;4.50;2.92;;;;;;;;;;4973779;28;20031;-67
2023/03/13 03:47:12;;;;;;;5.28;2.72;;;;;;;;;;4973844;28;20063;-68
2023/03/13 03:49:42;;;;;;;8.27;2.95;;;;;;;;;;4973574;28;20480;-69
2023/03/13 03:52:10;;;;;;;5.40;3.00;;;;;;;;;;4990577;28;20038;-68
2023/03/13 03:54:39;;;;;;;6.35;3.00;;;;;;;;;;4978944;28;20463;-69
2023/03/13 03:57:04;;;;;;;5.20;3.17;;;;;;;;;;4974289;28;20116;-69
2023/03/13 03:59:31;;;;;;;5.32;3.35;;;;;;;;;;4973287;28;20496;-69
2023/03/13 04:02:01;;;;;;;5.70;3.08;;;;;;;;;;4990275;28;20042;-69
2023/03/13 04:04:29;;;;;;;7.60;3.50;;;;;;;;;;4989261;28;20038;-69
2023/03/13 04:07:08;;;;;;;7.05;3.90;;;;;;;;;;4989525;28;20076;-69
2023/03/13 04:09:34;;;;;;;9.65;3.85;;;;;;;;;;4973157;28;20034;-69
2023/03/13 04:12:01;;;;;;;7.97;3.95;;;;;;;;;;4972578;28;20042;-69
2023/03/13 04:14:31;;;;;;;7.05;4.43;;;;;;;;;;4972812;28;20030;-69
2023/03/13 04:16:57;;;;;;;4.25;3.30;;;;;;;;;;4976099;28;20066;-69
2023/03/13 04:19:23;;;;;;;6.50;3.55;;;;;;;;;;4973033;28;20038;-69
2023/03/13 04:21:49;;;;;;;14.20;4.40;;;;;;;;;;4973556;28;20031;-69
2023/03/13 04:24:17;;;;;;;8.07;3.08;;;;;;;;;;4973487;28;20027;-69
2023/03/13 04:26:44;;;;;;;5.03;2.83;;;;;;;;;;4990159;28;20030;-69
2023/03/13 04:29:10;;;;;;;5.43;2.80;;;;;;;;;;4973092;28;20041;-69
2023/03/13 04:31:58;;;;;;;7.47;3.03;;;;;;;;;;4971386;28;20030;-69
2023/03/13 04:34:27;;;;;;;6.68;3.28;;;;;;;;;;4990270;28;20053;-69
2023/03/13 04:37:10;;;;;;;6.78;3.00;;;;;;;;;;4990745;28;20408;-70
2023/03/13 04:39:54;;;;;;;4.65;2.97;;;;;;;;;;4991665;28;20475;-70
2023/03/13 04:42:42;;;;;;;5.20;3.03;;;;;;;;;;4988787;28;20049;-68
2023/03/13 04:45:24;;;;;;;7.25;3.45;;;;;;;;;;4986903;28;20477;-69
2023/03/13 04:48:13;;;;;;;14.50;3.70;;;;;;;;;;4993356;28;20526;-69
2023/03/13 04:50:55;;;;;;;6.23;3.03;;;;;;;;;;4976145;28;20031;-68
2023/03/13 04:53:29;;;;;;;11.10;3.88;;;;;;;;;;4976700;28;20280;-68
2023/03/13 04:55:57;;;;;;;4.82;2.83;;;;;;;;;;4994707;28;20488;-68
2023/03/13 04:58:47;;;;;;;5.43;2.95;;;;;;;;;;4976688;28;20034;-69
2023/03/13 05:01:32;;;;;;;7.10;2.40;;;;;;;;;;4993659;28;20078;-71
2023/03/13 05:04:12;;;;;;;5.88;2.85;;;;;;;;;;4993165;28;20031;-68
2023/03/13 05:06:58;;;;;;;5.63;2.75;;;;;;;;;;4973340;28;20034;-69
2023/03/13 05:09:50;;;;;;;8.27;3.38;;;;;;;;;;4992087;28;20034;-68
2023/03/13 05:12:34;;;;;;;5.80;2.72;;;;;;;;;;4995144;28;20089;-68
2023/03/13 05:15:16;;;;;;;6.53;3.30;;;;;;;;;;4976506;28;20042;-69
2023/03/13 05:17:54;;;;;;;5.70;2.78;;;;;;;;;;4976986;28;20098;-68
2023/03/13 05:20:39;;;;;;;5.90;2.78;;;;;;;;;;4991963;28;20052;-68
2023/03/13 05:23:23;;;;;;;;;;;;;;;;;;4992857;28;20046;-67
2023/03/13 05:26:07;;;;;;;4.93;2.40;;;;;;;;;;4987607;28;20036;-68
2023/03/13 05:28:53;;;;;;;4.80;2.80;;;;;;;;;;4974509;28;20094;-67
2023/03/13 05:31:25;;;;;;;4.82;2.70;;;;;;;;;;4992616;28;20034;-67
2023/03/13 05:34:09;;;;;;;9.38;3.67;;;;;;;;;;4993975;28;20057;-68
2023/03/13 05:36:53;;;;;;;10.57;4.03;;;;;;;;;;4990615;28;20038;-69
2023/03/13 05:39:38;;;;;;;5.90;3.30;;;;;;;;;;5003825;28;20516;-70
2023/03/13 05:42:22;;;;;;;11.30;3.88;;;;;;;;;;4975902;28;20042;-72
2023/03/13 05:44:58;;;;;;;7.13;4.20;;;;;;;;;;4975377;28;20080;-70
2023/03/13 05:47:43;;;;;;;9.85;3.85;;;;;;;;;;4968188;28;20128;-71
2023/03/13 05:50:27;;;;;;;;;;;;;;;;;;4975928;28;20034;-72
2023/03/13 05:53:11;;;;;;;7.68;3.50;;;;;;;;;;4993508;28;19968;-71
2023/03/13 05:55:51;;;;;;;6.40;3.08;;;;;;;;;;4986450;28;20524;-71
2023/03/13 05:58:36;;;;;;;9.43;3.50;;;;;;;;;;4987384;28;20143;-71
2023/03/13 06:01:09;;;;;;;9.15;3.20;;;;;;;;;;4993250;28;20046;-71
2023/03/13 06:04:01;;;;;;;9.15;3.78;;;;;;;;;;4974990;28;20029;-71
2023/03/13 06:06:28;;;;;;;13.77;4.20;;;;;;;;;;4977185;28;20037;-71
2023/03/13 06:08:55;;;;;;;7.95;3.78;;;;;;;;;;4991164;28;20157;-70
2023/03/13 06:11:27;;;;;;;6.53;3.05;;;;;;;;;;4973919;28;20026;-70
2023/03/13 06:13:53;;;;;;;6.95;3.90;;;;;;;;;;4986400;28;20122;-73
2023/03/13 06:16:39;;;;;;;14.43;4.95;;;;;;;;;;4991283;28;20057;-70
2023/03/13 06:19:17;;;;;;;11.52;5.82;;;;;;;;;;4992921;28;20042;-70
2023/03/13 06:21:43;;;;;;;11.98;4.60;;;;;;;;;;4974100;28;20038;-70
2023/03/13 06:24:09;;;;;;;12.68;4.65;;;;;;;;;;4993348;28;20026;-71
2023/03/13 06:26:35;;;;;;;25.80;6.82;;;;;;;;;;4975556;28;20045;-71
2023/03/13 06:29:01;;;;;;;13.10;5.28;;;;;;;;;;4989624;28;20036;-71
2023/03/13 06:31:27;;;;;;;17.73;4.10;;;;;;;;;;4989544;28;20030;-72
2023/03/13 06:33:53;;;;;;;14.35;4.32;;;;;;;;;;4992814;28;20101;-72
2023/03/13 06:36:20;;;;;;;10.48;4.50;;;;;;;;;;4975027;28;20041;-71
2023/03/13 06:38:46;;;;;;;8.80;3.65;;;;;;;;;;4992939;28;20077;-72
2023/03/13 06:41:12;;;;;;;8.02;3.35;;;;;;;;;;4990625;28;20030;-71
2023/03/13 06:43:39;;;;;;;11.85;3.95;;;;;;;;;;4992493;28;20074;-71
2023/03/13 06:46:06;;;;;;;9.95;3.85;;;;;;;;;;4992362;28;20073;-71
2023/03/13 06:48:32;;;;;;;10.80;3.75;;;;;;;;;;4992328;28;20473;-71
2023/03/13 06:50:58;;;;;;;7.53;3.78;;;;;;;;;;4992301;28;20115;-71
2023/03/13 06:53:24;;;;;;;11.45;4.43;;;;;;;;;;4992144;28;20461;-71
2023/03/13 06:55:50;;;;;;;6.85;3.95;;;;;;;;;;4991330;28;20047;-70
2023/03/13 06:58:18;;;;;;;9.43;4.10;;;;;;;;;;4991364;28;20088;-71
2023/03/13 07:00:45;;;;;;;10.65;4.53;;;;;;;;;;4992471;28;20037;-71
2023/03/13 07:03:11;;;;;;;10.20;4.30;;;;;;;;;;4992097;28;20067;-72
2023/03/13 07:05:37;;;;;;;11.43;3.45;;;;;;;;;;4991195;28;20045;-70
2023/03/13 07:08:03;;;;;;;10.63;3.90;;;;;;;;;;4992543;28;20029;-71
2023/03/13 07:10:30;;;;;;;8.80;3.80;;;;;;;;;;4992360;28;20033;-71
2023/03/13 07:12:56;;;;;;;8.38;4.20;;;;;;;;;;4975969;28;20034;-71
2023/03/13 07:15:22;;;;;;;7.82;4.05;;;;;;;;;;4992517;28;20389;-70
2023/03/13 07:17:47;;;;;;;7.25;3.22;;;;;;;;;;4992534;28;20019;-72
2023/03/13 07:20:14;;;;;;;12.38;3.75;;;;;;;;;;4992297;28;20454;-71
2023/03/13 07:22:39;;;;;;;13.27;4.88;;;;;;;;;;4992077;28;20109;-71
2023/03/13 07:25:06;;;;;;;10.45;3.58;;;;;;;;;;4991981;28;20038;-70
2023/03/13 07:27:32;;;;;;;4.95;2.10;;;;;;;;;;4974526;28;20024;-70
2023/03/13 07:29:57;;;;;;;5.05;2.50;;;;;;;;;;4992016;28;20487;-71
2023/03/13 07:32:23;;;;;;;5.45;1.90;;;;;;;;;;4992111;28;20284;-71
2023/03/13 07:34:49;;;;;;;5.40;2.20;;;;;;;;;;4991857;28;20045;-71
2023/03/13 07:37:15;;;;;;;3.33;2.30;;;;;;;;;;4992374;28;20388;-70
2023/03/13 07:39:42;;;;;;;6.53;2.13;;;;;;;;;;4983416;28;20031;-70
2023/03/13 07:42:11;;;;;;;4.70;2.10;;;;;;;;;;4974582;28;20014;-69
2023/03/13 07:44:39;;;;;;;3.55;1.83;;;;;;;;;;4990482;28;20058;-70
2023/03/13 07:47:05;;;;;;;5.60;2.30;;;;;;;;;;4988756;28;20470;-69
2023/03/13 07:49:32;;;;;;;4.78;2.28;;;;;;;;;;4991432;28;20108;-71
2023/03/13 07:51:58;;;;;;;3.22;1.90;;;;;;;;;;4987312;28;20042;-70
2023/03/13 07:54:23;;;;;;;3.70;1.90;;;;;;;;;;4984890;28;20516;-70
2023/03/13 07:56:50;;;;;;;4.90;2.00;;;;;;;;;;4991599;28;20444;-70
2023/03/13 07:59:16;;;;;;;6.85;2.38;;;;;;;;;;4991551;28;20109;-70
2023/03/13 08:01:41;;;;;;;3.78;2.03;;;;;;;;;;4991595;28;20457;-70
2023/03/13 08:04:12;;;;;;;3.25;2.13;;;;;;;;;;4991934;28;20038;-73
2023/03/13 08:06:39;;;;;;;6.30;1.90;;;;;;;;;;4991841;28;20138;-71
2023/03/13 08:09:05;;;;;;;4.30;2.38;;;;;;;;;;4986952;28;20023;-70
2023/03/13 08:11:31;;;;;;;4.80;3.00;;;;;;;;;;4988652;28;20037;-71
2023/03/13 08:13:57;;;;;;;7.38;2.00;;;;;;;;;;4989514;28;20116;-71
2023/03/13 08:16:26;;;;;;;4.57;2.05;;;;;;;;;;4991263;28;20038;-70
2023/03/13 08:18:55;;;;;;;5.57;1.95;;;;;;;;;;4991442;28;20036;-72
2023/03/13 08:21:26;;;;;;;6.30;3.08;;;;;;;;;;4991543;28;20034;-71
2023/03/13 08:23:54;;;;;;;6.90;2.30;;;;;;;;;;4995692;28;20025;-71
2023/03/13 08:26:22;;;;;;;6.43;2.33;;;;;;;;;;4995363;28;20026;-70
2023/03/13 08:28:52;;;;;;;7.68;2.42;;;;;;;;;;4995329;28;20038;-70
2023/03/13 08:31:29;;;;;;;5.07;2.10;;;;;;;;;;4995427;28;20041;-70
2023/03/13 08:33:56;;;;;;;9.27;2.45;;;;;;;;;;4977136;28;20034;-70
2023/03/13 08:36:33;;;;;;;11.10;4.57;;;;;;;;;;4989552;28;20039;-70
2023/03/13 08:39:01;;;;;;;7.30;3.42;;;;;;;;;;4988170;28;20030;-70
2023/03/13 08:41:31;;;;;;;7.80;2.90;;;;;;;;;;4994963;28;20069;-71
2023/03/13 08:43:57;;;;;;;4.07;2.13;;;;;;;;;;4978017;28;20548;-70
2023/03/13 08:46:23;;;;;;;6.50;2.25;;;;;;;;;;4995290;28;20118;-71
2023/03/13 08:48:52;;;;;;;7.07;2.35;;;;;;;;;;4992951;28;20046;-71
2023/03/13 08:51:21;;;;;;;5.53;2.40;;;;;;;;;;4985019;28;20037;-71
2023/03/13 08:53:48;;;;;;;5.97;2.70;;;;;;;;;;4991160;28;20066;-71
2023/03/13 08:56:17;;;;;;;8.75;4.63;;;;;;;;;;4991801;28;20022;-70
2023/03/13 08:58:43;;;;;;;6.55;2.90;;;;;;;;;;4993813;28;20089;-72
2023/03/13 09:01:11;;;;;;;8.40;2.97;;;;;;;;;;4994759;28;20072;-72
2023/03/13 09:03:38;;;;;;;4.30;2.42;;;;;;;;;;4993750;28;20030;-72
2023/03/13 09:06:04;;;;;;;6.43;2.10;;;;;;;;;;4994852;28;20358;-72
2023/03/13 09:08:31;;;;;;;4.13;2.42;;;;;;;;;;4994550;28;20037;-72
2023/03/13 09:11:02;;;;;;;6.90;2.90;;;;;;;;;;4986746;28;20389;-72
2023/03/13 09:13:29;;;;;;;5.20;2.42;;;;;;;;;;4988535;28;20042;-70
2023/03/13 09:15:55;;;;;;;3.83;2.30;;;;;;;;;;4986987;28;20373;-71
2023/03/13 09:18:22;;;;;;;5.80;2.28;;;;;;;;;;4994381;28;20049;-72
2023/03/13 09:20:47;;;;;;;5.25;2.55;;;;;;;;;;4994956;28;20022;-71
2023/03/13 09:23:13;;;;;;;7.25;3.15;;;;;;;;;;4992772;28;20038;-71
2023/03/13 09:25:39;;;;;;;4.18;2.65;;;;;;;;;;4987886;28;20034;-72
2023/03/13 09:28:04;;;;;;;6.28;3.20;;;;;;;;;;4976985;28;20022;-71
2023/03/13 09:30:30;;;;;;;4.43;2.70;;;;;;;;;;4994586;28;20449;-72
2023/03/13 09:32:56;;;;;;;5.28;2.95;;;;;;;;;;4994408;28;20086;-72
2023/03/13 09:35:21;;;;;;;6.35;3.00;;;;;;;;;;4991970;28;20026;-72
2023/03/13 09:37:47;;;;;;;3.97;2.55;;;;;;;;;;4969020;28;20049;-72
2023/03/13 09:40:19;;;;;;;6.20;2.80;;;;;;;;;;4992188;28;20036;-72
2023/03/13 09:42:46;;;;;;;4.80;2.70;;;;;;;;;;4994121;28;20046;-71
2023/03/13 09:45:30;;;;;;;9.00;3.17;;;;;;;;;;4993804;28;20472;-70
2023/03/13 09:47:57;;;;;;;;;;;;;;;;;;4987216;28;20377;-73
2023/03/13 09:50:28;;;;;;;4.55;3.00;;;;;;;;;;4994142;28;19918;-71
2023/03/13 09:53:01;;;;;;;6.65;3.75;;;;;;;;;;4995850;28;20088;-72
2023/03/13 09:55:33;;;;;;;8.77;2.80;;;;;;;;;;4994605;28;20026;-72
2023/03/13 09:58:15;;;;;;;5.15;2.55;;;;;;;;;;4995169;28;20030;-72
2023/03/13 10:00:50;;;;;;;4.95;2.65;;;;;;;;;;4995088;28;20060;-71
2023/03/13 10:03:37;;;;;;;5.00;2.70;;;;;;;;;;4994796;28;20121;-71
2023/03/13 10:06:10;;;;;;;5.07;2.67;;;;;;;;;;4978962;28;20480;-72
2023/03/13 10:08:36;;;;;;;7.28;2.65;;;;;;;;;;4977380;28;20050;-70
2023/03/13 10:11:26;;;;;;;10.00;2.92;;;;;;;;;;4994432;28;20026;-72
2023/03/13 10:14:14;;;;;;;7.15;3.00;;;;;;;;;;4977206;28;20527;-75
2023/03/13 10:17:15;;;;;;;6.22;3.83;;;;;;;;;;4976720;28;20034;-71
2023/03/13 10:19:42;;;;;;;8.82;3.08;;;;;;;;;;4994292;28;20052;-72
2023/03/13 10:22:15;;;;;;;3.60;2.47;;;;;;;;;;4993994;28;20030;-72
2023/03/13 10:24:48;;;;;;;3.65;2.58;;;;;;;;;;4977063;28;20038;-72
2023/03/13 10:27:15;;;;;;;3.80;2.50;;;;;;;;;;4993638;28;20034;-72
2023/03/13 10:29:40;;;;;;;4.28;2.72;;;;;;;;;;4975762;28;20492;-72
2023/03/13 10:32:07;;;;;;;6.43;2.72;;;;;;;;;;4993604;28;20049;-71
2023/03/13 10:34:55;;;;;;;4.63;2.70;;;;;;;;;;4993169;28;20022;-71
2023/03/13 10:37:28;;;;;;;6.78;3.08;;;;;;;;;;4993027;28;20113;-71
2023/03/13 10:39:54;;;;;;;4.53;2.90;;;;;;;;;;4993272;28;20108;-71
2023/03/13 10:42:27;;;;;;;6.40;3.45;;;;;;;;;;4992837;28;20065;-72
2023/03/13 10:44:58;;;;;;;6.95;2.55;;;;;;;;;;4992708;28;20030;-71
2023/03/13 10:47:24;;;;;;;4.60;2.80;;;;;;;;;;4993409;28;20134;-70
2023/03/13 10:49:54;;;;;;;5.75;2.58;;;;;;;;;;4992641;28;20045;-71
2023/03/13 10:52:46;;;;;;;6.70;3.40;;;;;;;;;;4992873;28;20045;-71
2023/03/13 10:55:20;;;;;;;5.15;3.67;;;;;;;;;;4992678;28;20228;-70
2023/03/13 10:57:59;;;;;;;5.45;3.38;;;;;;;;;;4992767;28;20040;-71
2023/03/13 11:00:35;;;;;;;4.38;3.00;;;;;;;;;;4992901;28;20089;-72
2023/03/13 11:03:05;;;;;;;8.93;3.22;;;;;;;;;;4992894;28;20066;-71
2023/03/13 11:05:37;;;;;;;4.90;2.67;;;;;;;;;;4991654;28;20026;-71
2023/03/13 11:08:26;;;;;;;7.43;3.40;;;;;;;;;;4992551;28;20037;-72
2023/03/13 11:11:04;;;;;;;10.35;3.08;;;;;;;;;;4992481;28;20137;-71
2023/03/13 11:13:34;;;;;;;3.90;2.63;;;;;;;;;;4991084;28;20035;-72
2023/03/13 11:16:26;;;;;;;5.68;3.22;;;;;;;;;;4992564;28;20476;-72
2023/03/13 11:19:17;;;;;;;5.43;3.10;;;;;;;;;;4992577;28;20443;-73
2023/03/13 11:22:06;;;;;;;6.53;3.00;;;;;;;;;;4990895;28;20381;-71
2023/03/13 11:24:34;;;;;;;5.80;2.45;;;;;;;;;;4992419;28;20105;-71
2023/03/13 11:27:34;;;;;;;5.40;2.60;;;;;;;;;;4992662;28;20030;-72
2023/03/13 11:30:21;;;;;;;8.52;2.80;;;;;;;;;;4992086;28;20042;-72
2023/03/13 11:32:53;;;;;;;6.70;3.10;;;;;;;;;;4992299;28;20057;-71
2023/03/13 11:35:48;;;;;;;4.40;2.40;;;;;;;;;;4992664;28;20556;-72
2023/03/13 11:38:23;;;;;;;4.97;2.80;;;;;;;;;;4990010;28;20046;-71
2023/03/13 11:40:58;;;;;;;5.93;3.33;;;;;;;;;;4976179;28;20576;-71
2023/03/13 11:43:29;;;;;;;4.47;2.67;;;;;;;;;;4992229;28;20038;-71
2023/03/13 11:46:07;;;;;;;4.53;2.75;;;;;;;;;;4990936;28;20520;-71
2023/03/13 11:49:05;;;;;;;6.03;2.60;;;;;;;;;;4991967;28;20118;-71
2023/03/13 11:52:02;;;;;;;4.18;2.72;;;;;;;;;;4938524;28;20042;-70
2023/03/13 11:54:56;;;;;;;5.35;2.90;;;;;;;;;;4942596;28;20130;-72
2023/03/13 11:57:34;;;;;;;4.07;3.13;;;;;;;;;;4955652;28;20078;-72
2023/03/13 12:00:14;;;;;;;7.80;2.90;;;;;;;;;;4972698;28;20449;-71
2023/03/13 12:02:59;;;;;;;5.20;2.45;;;;;;;;;;4972530;28;20493;-71
2023/03/13 12:05:27;;;;;;;5.22;2.90;;;;;;;;;;4972705;28;20035;-71
2023/03/13 12:08:09;;;;;;;8.48;3.17;;;;;;;;;;4972918;28;20033;-70
2023/03/13 12:10:44;;;;;;;4.20;2.50;;;;;;;;;;4956447;28;20045;-71
2023/03/13 12:13:19;;;;;;;4.35;2.70;;;;;;;;;;4972707;28;20074;-71
2023/03/13 12:15:53;;;;;;;4.35;2.38;;;;;;;;;;4972516;28;20561;-71
2023/03/13 12:18:22;;;;;;;5.57;2.90;;;;;;;;;;4972695;28;20042;-71
2023/03/13 12:20:57;;;;;;;4.70;2.72;;;;;;;;;;4973142;28;20027;-72
2023/03/13 12:23:30;;;;;;;6.57;2.78;;;;;;;;;;4972944;28;20038;-72
2023/03/13 12:26:06;;;;;;;4.00;2.72;;;;;;;;;;4980940;28;20038;-72
2023/03/13 12:28:54;;;;;;;7.25;3.20;;;;;;;;;;4990804;28;20548;-71
2023/03/13 12:31:33;;;;;;;3.78;2.63;;;;;;;;;;4980582;28;20088;-71
2023/03/13 12:34:06;;;;;;;4.80;2.92;;;;;;;;;;4991189;28;20041;-71
2023/03/13 12:36:37;;;;;;;8.67;4.13;;;;;;;;;;4974243;28;20041;-71
2023/03/13 12:39:24;;;;;;;7.32;3.63;;;;;;;;;;4990415;28;20042;-71
2023/03/13 12:42:35;;;;;;;7.18;2.95;;;;;;;;;;4991842;28;20050;-71
2023/03/13 12:45:01;;;;;;;5.95;3.40;;;;;;;;;;4971338;28;20082;-72
2023/03/13 12:47:54;;;;;;;5.38;2.78;;;;;;;;;;4991762;28;20030;-72
2023/03/13 12:50:34;;;;;;;3.95;2.58;;;;;;;;;;4991638;28;20048;-71
2023/03/13 12:53:27;;;;;;;4.13;2.47;;;;;;;;;;4991077;28;20065;-71
2023/03/13 12:55:58;;;;;;;3.53;2.45;;;;;;;;;;4974813;28;20050;-72
2023/03/13 12:58:48;;;;;;;4.13;2.78;;;;;;;;;;4990757;28;20452;-73
2023/03/13 13:01:30;;;;;;;8.13;4.85;;;;;;;;;;4990031;28;20042;-72
2023/03/13 13:04:11;;;;;;;6.72;2.67;;;;;;;;;;4991479;28;20113;-72
2023/03/13 13:06:54;;;;;;;5.60;2.88;;;;;;;;;;4974177;28;20097;-71
2023/03/13 13:09:40;;;;;;;5.95;3.40;;;;;;;;;;4994814;28;20038;-71
2023/03/13 13:12:24;;;;;;;4.35;2.88;;;;;;;;;;4995457;28;20088;-70
2023/03/13 13:14:49;;;;;;;4.72;2.65;;;;;;;;;;4995255;28;20046;-71
2023/03/13 13:17:27;;;;;;;6.78;2.90;;;;;;;;;;4995021;28;20432;-71
2023/03/13 13:19:55;;;;;;;7.25;3.08;;;;;;;;;;4994950;28;20030;-72
2023/03/13 13:22:38;;;;;;;7.00;3.40;;;;;;;;;;4977791;28;20116;-71
2023/03/13 13:25:10;;;;;;;;;;;;;;;;;;4995834;28;20117;-72
2023/03/13 13:27:36;;;;;;;6.70;3.42;;;;;;;;;;4995819;28;20057;-72
2023/03/13 13:30:16;;;;;;;8.00;3.10;;;;;;;;;;4977870;28;20419;-70
2023/03/13 13:32:44;;;;;;;5.47;2.50;;;;;;;;;;4994733;28;20034;-70
2023/03/13 13:35:24;;;;;;;6.78;3.10;;;;;;;;;;4977616;28;20532;-72
2023/03/13 13:37:50;;;;;;;3.88;2.70;;;;;;;;;;4977226;28;20475;-71
2023/03/13 13:40:15;;;;;;;3.58;2.88;;;;;;;;;;4993960;28;20472;-72
2023/03/13 13:42:56;;;;;;;5.43;3.08;;;;;;;;;;4977529;28;20046;-72
2023/03/13 13:45:32;;;;;;;4.70;2.90;;;;;;;;;;4995098;28;20120;-71
2023/03/13 13:48:27;;;;;;;6.57;3.47;;;;;;;;;;4994370;28;20109;-71
2023/03/13 13:51:12;;;;;;;5.30;3.00;;;;;;;;;;4994349;28;20507;-71
2023/03/13 13:53:55;;;;;;;8.77;2.92;;;;;;;;;;4994668;28;20038;-72
2023/03/13 13:56:30;;;;;;;5.97;2.60;;;;;;;;;;4994641;28;20048;-71
2023/03/13 13:59:21;;;;;;;3.83;2.65;;;;;;;;;;4994565;28;20069;-72
2023/03/13 14:02:15;;;;;;;5.25;3.03;;;;;;;;;;4994570;28;20064;-71
2023/03/13 14:04:55;;;;;;;5.57;2.85;;;;;;;;;;4994507;28;20400;-72
2023/03/13 14:07:29;;;;;;;5.93;3.50;;;;;;;;;;4994098;28;20077;-71
2023/03/13 14:10:17;;;;;;;5.80;3.10;;;;;;;;;;4993091;28;20030;-71
2023/03/13 14:13:04;;;;;;;10.02;3.17;;;;;;;;;;4994122;28;20046;-72
2023/03/13 14:15:33;;;;;;;16.15;8.77;;;;;;;;;;4994139;28;20046;-71
2023/03/13 14:18:07;;;;;;;4.90;3.60;;;;;;;;;;4993941;28;20098;-71
2023/03/13 14:20:36;;;;;;;4.95;2.90;;;;;;;;;;4992878;28;20038;-71
2023/03/13 14:23:08;;;;;;;4.65;3.20;;;;;;;;;;4993795;28;20038;-72
2023/03/13 14:25:48;;;;;;;7.03;3.20;;;;;;;;;;4994083;28;20042;-71
2023/03/13 14:28:26;;;;;;;4.15;2.80;;;;;;;;;;4993778;28;20069;-71
2023/03/13 14:30:55;;;;;;;6.50;3.40;;;;;;;;;;4976751;28;20582;-70
2023/03/13 14:33:26;;;;;;;3.95;2.88;;;;;;;;;;4993689;28;20343;-73
2023/03/13 14:35:52;;;;;;;9.23;3.40;;;;;;;;;;4985995;28;20030;-71
2023/03/13 14:38:22;;;;;;;5.32;2.72;;;;;;;;;;4989139;28;20452;-72
2023/03/13 14:40:50;;;;;;;15.48;3.47;;;;;;;;;;4993955;28;20057;-72
2023/03/13 14:43:25;;;;;;;4.95;3.17;;;;;;;;;;4990595;28;20045;-71
2023/03/13 14:45:51;;;;;;;7.55;3.55;;;;;;;;;;4990967;28;20050;-71
2023/03/13 14:48:30;;;;;;;7.25;2.90;;;;;;;;;;4991946;28;20097;-72
2023/03/13 14:51:16;;;;;;;7.72;3.15;;;;;;;;;;4992996;28;20054;-71
2023/03/13 14:54:00;;;;;;;5.18;2.60;;;;;;;;;;4991670;28;20060;-72
2023/03/13 14:56:42;;;;;;;5.57;2.83;;;;;;;;;;4991105;28;20026;-71
2023/03/13 14:59:22;;;;;;;4.75;3.10;;;;;;;;;;4984865;28;20053;-73
2023/03/13 15:02:00;;;;;;;9.48;3.60;;;;;;;;;;4992861;28;20397;-73
2023/03/13 15:04:49;;;;;;;6.97;3.00;;;;;;;;;;4990541;28;20027;-72
2023/03/13 15:07:15;;;;;;;5.47;2.78;;;;;;;;;;4967629;28;20513;-71
2023/03/13 15:09:42;;;;;;;7.43;3.85;;;;;;;;;;4993128;28;20513;-72
2023/03/13 15:12:17;;;;;;;6.20;3.20;;;;;;;;;;4990305;28;20113;-73
2023/03/13 15:14:45;;;;;;;7.57;3.00;;;;;;;;;;4994800;28;20066;-73
2023/03/13 15:17:13;;;;;;;4.03;2.60;;;;;;;;;;4986796;28;20077;-73